Time;durP1;ratioP1;P1;durP2;ratioP2;P2;SDS_P1;SDS_P2;PMS_P1;PMS_P2;Temp;Humidity;BMP_temperature;BMP_pressure;BME280_temperature;BME280_humidity;BME280_pressure;Samples;Min_cycle;Max_cycle;Signal;HPM_P1;HPM_P2
2021/04/18 00:01:44;;;;;;;10.53;6.37;;;5.40;1.00;;;;;;4997918;28;20475;-43
2021/04/18 00:04:10;;;;;;;9.37;6.40;;;5.40;1.00;;;;;;5001491;28;20465;-41
2021/04/18 00:06:38;;;;;;;14.00;5.83;;;5.40;1.00;;;;;;4997894;28;20538;-43
2021/04/18 00:09:05;;;;;;;10.60;5.80;;;5.50;1.00;;;;;;5001800;28;20898;-42
2021/04/18 00:11:34;;;;;;;10.40;5.77;;;5.50;1.00;;;;;;4998083;28;20882;-43
2021/04/18 00:14:00;;;;;;;8.40;5.67;;;5.50;1.00;;;;;;5013650;28;20785;-41
2021/04/18 00:16:27;;;;;;;6.70;4.70;;;5.50;1.00;;;;;;5006788;28;20469;-43
2021/04/18 00:18:54;;;;;;;7.83;5.30;;;5.60;1.00;;;;;;5000815;28;20492;-42
2021/04/18 00:21:20;;;;;;;9.90;5.67;;;5.50;1.00;;;;;;4992519;28;20495;-42
2021/04/18 00:23:47;;;;;;;14.83;5.47;;;5.60;1.00;;;;;;5020747;28;20464;-43
2021/04/18 00:26:13;;;;;;;7.87;6.13;;;5.50;1.00;;;;;;5016945;28;20468;-41
2021/04/18 00:28:41;;;;;;;8.43;6.20;;;5.50;1.00;;;;;;5020939;28;20483;-42
2021/04/18 00:31:07;;;;;;;7.63;5.87;;;5.40;1.00;;;;;;5016667;28;21598;-42
2021/04/18 00:33:34;;;;;;;6.37;5.67;;;5.30;1.00;;;;;;5020801;28;20471;-42
2021/04/18 00:36:00;;;;;;;9.30;7.00;;;5.20;1.00;;;;;;5007178;28;20471;-41
2021/04/18 00:38:27;;;;;;;11.13;5.67;;;5.20;1.00;;;;;;5001624;28;20493;-44
2021/04/18 00:40:56;;;;;;;9.93;6.73;;;5.10;1.00;;;;;;5004472;28;20475;-45
2021/04/18 00:43:22;;;;;;;7.50;6.20;;;5.00;1.00;;;;;;5001268;28;20503;-43
2021/04/18 00:45:50;;;;;;;7.90;6.23;;;5.00;1.00;;;;;;5004856;28;20465;-42
2021/04/18 00:48:16;;;;;;;7.93;5.90;;;5.00;1.00;;;;;;5002060;28;20526;-44
2021/04/18 00:50:43;;;;;;;8.77;6.80;;;5.00;1.00;;;;;;5004116;28;20811;-41
2021/04/18 00:53:10;;;;;;;9.20;6.63;;;4.90;1.00;;;;;;5004225;28;20737;-42
2021/04/18 00:55:39;;;;;;;9.20;6.67;;;4.90;1.00;;;;;;5001019;28;20475;-42
2021/04/18 00:58:06;;;;;;;9.30;5.97;;;4.90;1.00;;;;;;5004685;28;20492;-43
2021/04/18 01:00:37;;;;;;;8.43;6.30;;;4.90;1.00;;;;;;5000920;28;20792;-41
2021/04/18 01:03:06;;;;;;;7.90;6.43;;;5.00;1.00;;;;;;5004653;28;20783;-42
2021/04/18 01:05:33;;;;;;;8.53;6.10;;;5.00;1.00;;;;;;4994954;28;20473;-44
2021/04/18 01:08:01;;;;;;;16.13;7.00;;;5.10;1.00;;;;;;5007328;28;20521;-49
2021/04/18 01:10:28;;;;;;;9.23;6.37;;;5.10;1.00;;;;;;5000415;28;20905;-45
2021/04/18 01:12:55;;;;;;;8.13;6.47;;;5.10;1.00;;;;;;5004501;28;20901;-43
2021/04/18 01:15:21;;;;;;;10.67;6.90;;;5.10;1.00;;;;;;5000481;28;21024;-42
2021/04/18 01:17:50;;;;;;;8.10;6.13;;;5.20;1.00;;;;;;5004044;28;20492;-42
2021/04/18 01:20:21;;;;;;;9.90;6.23;;;5.20;1.00;;;;;;5000715;28;20460;-42
2021/04/18 01:22:50;;;;;;;8.30;6.33;;;5.20;1.00;;;;;;5016554;28;20467;-43
2021/04/18 01:25:17;;;;;;;8.33;6.47;;;5.20;1.00;;;;;;5003567;28;20525;-42
2021/04/18 01:27:45;;;;;;;13.13;6.57;;;5.20;1.00;;;;;;5000082;28;20759;-43
2021/04/18 01:30:14;;;;;;;11.93;6.87;;;5.20;1.00;;;;;;5003523;28;20492;-42
2021/04/18 01:32:45;;;;;;;9.10;6.67;;;5.30;1.00;;;;;;5000442;28;20469;-43
2021/04/18 01:35:13;;;;;;;7.47;6.63;;;5.30;1.00;;;;;;5004130;28;20468;-47
2021/04/18 01:37:39;;;;;;;12.93;6.83;;;5.30;1.00;;;;;;5000111;28;20496;-42
2021/04/18 01:40:11;;;;;;;10.00;7.27;;;5.40;1.00;;;;;;5003444;28;20468;-43
2021/04/18 01:42:38;;;;;;;10.07;6.33;;;5.40;1.00;;;;;;5000400;28;20916;-43
2021/04/18 01:45:06;;;;;;;9.03;6.00;;;5.40;1.00;;;;;;5004024;28;20472;-45
2021/04/18 01:47:33;;;;;;;8.63;6.03;;;5.40;1.00;;;;;;4999867;28;20480;-47
2021/04/18 01:49:59;;;;;;;12.83;7.43;;;5.30;1.00;;;;;;5003804;28;20465;-43
2021/04/18 01:52:27;;;;;;;12.90;6.83;;;5.40;1.00;;;;;;5000918;28;20916;-45
2021/04/18 01:54:53;;;;;;;9.10;6.20;;;5.30;1.00;;;;;;5002868;28;20523;-43
2021/04/18 01:57:21;;;;;;;10.70;6.27;;;5.30;1.00;;;;;;5002827;28;20488;-46
2021/04/18 01:59:47;;;;;;;10.43;6.30;;;5.30;1.00;;;;;;4999737;28;20469;-43
2021/04/18 02:02:20;;;;;;;8.67;6.07;;;5.30;1.00;;;;;;5003001;28;20464;-43
2021/04/18 02:04:46;;;;;;;8.70;6.30;;;5.30;1.00;;;;;;4995403;28;20778;-42
2021/04/18 02:07:13;;;;;;;10.80;7.20;;;5.30;1.00;;;;;;5002904;28;20797;-42
2021/04/18 02:09:39;;;;;;;11.57;7.37;;;5.20;1.00;;;;;;4999496;28;20468;-47
2021/04/18 02:12:09;;;;;;;7.73;6.93;;;5.30;1.00;;;;;;5003126;28;20460;-42
2021/04/18 02:14:40;;;;;;;12.80;7.03;;;5.30;1.00;;;;;;4999389;28;20518;-43
2021/04/18 02:17:06;;;;;;;9.63;7.23;;;5.30;1.00;;;;;;5002712;28;20468;-43
2021/04/18 02:19:33;;;;;;;9.67;6.60;;;5.30;1.00;;;;;;4999111;28;20484;-44
2021/04/18 02:22:00;;;;;;;11.63;7.90;;;5.30;1.00;;;;;;5002747;28;20465;-42
2021/04/18 02:24:27;;;;;;;9.30;7.23;;;5.30;1.00;;;;;;4999692;28;20469;-43
2021/04/18 02:26:54;;;;;;;10.47;6.60;;;5.30;1.00;;;;;;5010878;28;20463;-43
2021/04/18 02:29:21;;;;;;;9.70;6.87;;;5.30;1.00;;;;;;5016420;28;20492;-46
2021/04/18 02:31:48;;;;;;;11.63;7.60;;;5.20;1.00;;;;;;5016994;28;20843;-46
2021/04/18 02:34:15;;;;;;;10.37;7.47;;;5.20;1.00;;;;;;5014514;28;20874;-44
2021/04/18 02:36:41;;;;;;;8.27;7.00;;;5.20;1.00;;;;;;5018651;28;20460;-47
2021/04/18 02:39:08;;;;;;;7.73;7.03;;;5.10;1.00;;;;;;5012386;28;20503;-43
2021/04/18 02:41:37;;;;;;;13.13;7.23;;;5.10;1.00;;;;;;4998862;28;20516;-49
2021/04/18 02:44:04;;;;;;;9.60;7.20;;;5.10;1.00;;;;;;5002686;28;20472;-49
2021/04/18 02:46:30;;;;;;;11.73;7.33;;;5.10;1.00;;;;;;4998711;28;20464;-43
2021/04/18 02:48:58;;;;;;;7.93;6.77;;;5.20;1.00;;;;;;5002811;28;20597;-44
2021/04/18 02:51:25;;;;;;;8.03;6.90;;;5.10;1.00;;;;;;4999117;28;20471;-43
2021/04/18 02:53:51;;;;;;;10.80;8.50;;;5.10;1.00;;;;;;5002542;28;20527;-48
2021/04/18 02:56:18;;;;;;;15.00;7.07;;;5.10;1.00;;;;;;4999028;28;20523;-43
2021/04/18 02:58:47;;;;;;;10.87;7.40;;;5.10;1.00;;;;;;5002346;28;20489;-46
2021/04/18 03:01:14;;;;;;;10.07;8.70;;;5.20;1.00;;;;;;4999550;28;20465;-50
2021/04/18 03:03:40;;;;;;;11.63;7.13;;;5.20;1.00;;;;;;4995416;28;20473;-43
2021/04/18 03:06:08;;;;;;;11.30;7.87;;;5.20;1.00;;;;;;4999526;28;20460;-45
2021/04/18 03:08:34;;;;;;;7.30;6.60;;;5.20;1.00;;;;;;5011395;28;20479;-46
2021/04/18 03:11:01;;;;;;;7.77;6.10;;;5.30;1.00;;;;;;5002289;28;20461;-45
2021/04/18 03:13:27;;;;;;;13.77;7.30;;;5.30;1.00;;;;;;4998591;28;20461;-42
2021/04/18 03:15:54;;;;;;;10.90;7.33;;;5.30;1.00;;;;;;5002179;28;20881;-45
2021/04/18 03:18:20;;;;;;;8.40;7.40;;;5.30;1.00;;;;;;4998278;28;20493;-46
2021/04/18 03:20:47;;;;;;;16.63;7.70;;;5.30;1.00;;;;;;5002520;28;20465;-43
2021/04/18 03:23:14;;;;;;;9.87;6.57;;;5.30;1.00;;;;;;4998588;28;20472;-43
2021/04/18 03:25:41;;;;;;;8.87;8.07;;;5.30;1.00;;;;;;5001653;28;20785;-45
2021/04/18 03:28:07;;;;;;;9.80;7.13;;;5.30;1.00;;;;;;4998108;28;20472;-43
2021/04/18 03:30:36;;;;;;;8.47;6.73;;;5.40;1.00;;;;;;5001833;28;20468;-44
2021/04/18 03:33:05;;;;;;;9.40;6.93;;;5.40;1.00;;;;;;4997761;28;20469;-43
2021/04/18 03:35:31;;;;;;;8.63;7.00;;;5.40;1.00;;;;;;5013432;28;20498;-44
2021/04/18 03:38:00;;;;;;;13.73;7.33;;;5.40;1.00;;;;;;5015987;28;20539;-44
2021/04/18 03:40:28;;;;;;;11.00;7.40;;;5.30;1.00;;;;;;5000290;28;20559;-45
2021/04/18 03:42:54;;;;;;;10.13;7.40;;;5.40;1.00;;;;;;5001262;28;20460;-43
2021/04/18 03:45:21;;;;;;;10.30;6.83;;;5.40;1.00;;;;;;4998032;28;20472;-44
2021/04/18 03:47:48;;;;;;;11.00;7.00;;;5.40;1.00;;;;;;5001268;28;20469;-47
2021/04/18 03:50:15;;;;;;;8.80;7.07;;;5.40;1.00;;;;;;4998059;28;20475;-43
2021/04/18 03:52:41;;;;;;;9.27;7.73;;;5.40;1.00;;;;;;5001146;28;20468;-46
2021/04/18 03:55:09;;;;;;;8.00;6.30;;;5.50;1.00;;;;;;4997800;28;20496;-42
2021/04/18 03:57:37;;;;;;;10.63;7.53;;;5.50;1.00;;;;;;5001004;28;20488;-42
2021/04/18 04:00:05;;;;;;;9.90;6.90;;;5.50;1.00;;;;;;4997757;28;20468;-47
2021/04/18 04:02:32;;;;;;;11.27;7.27;;;5.40;1.00;;;;;;4998624;28;20732;-48
2021/04/18 04:04:58;;;;;;;11.60;7.77;;;5.40;1.00;;;;;;4995621;28;20464;-45
2021/04/18 04:07:25;;;;;;;7.93;6.87;;;5.50;1.00;;;;;;5000823;28;20457;-48
2021/04/18 04:09:51;;;;;;;7.10;6.40;;;5.50;1.00;;;;;;4997915;28;20948;-43
2021/04/18 04:12:18;;;;;;;12.13;6.50;;;5.50;1.00;;;;;;5000459;28;20469;-46
2021/04/18 04:14:45;;;;;;;12.90;7.00;;;5.50;1.00;;;;;;4999665;28;20461;-43
2021/04/18 04:17:12;;;;;;;8.47;6.67;;;5.50;1.00;;;;;;4998442;28;20472;-44
2021/04/18 04:19:39;;;;;;;8.23;6.40;;;5.50;1.00;;;;;;4999889;28;20465;-42
2021/04/18 04:22:05;;;;;;;11.83;7.57;;;5.50;1.00;;;;;;5006504;28;20842;-50
2021/04/18 04:24:32;;;;;;;13.20;7.97;;;5.50;1.00;;;;;;5001694;28;20468;-43
2021/04/18 04:26:59;;;;;;;7.93;6.40;;;5.50;1.00;;;;;;4998005;28;20777;-42
2021/04/18 04:29:26;;;;;;;10.50;7.47;;;5.40;1.00;;;;;;5000952;28;20577;-42
2021/04/18 04:31:53;;;;;;;14.00;7.00;;;5.50;1.00;;;;;;4998109;28;20467;-43
2021/04/18 04:34:20;;;;;;;10.10;7.20;;;5.50;1.00;;;;;;5001320;28;20472;-43
2021/04/18 04:36:46;;;;;;;10.00;7.60;;;5.50;1.00;;;;;;4998064;28;20469;-44
2021/04/18 04:39:13;;;;;;;12.90;6.63;;;5.50;1.00;;;;;;5011350;28;20492;-42
2021/04/18 04:41:40;;;;;;;11.27;6.77;;;5.50;1.00;;;;;;5016954;28;20473;-46
2021/04/18 04:44:16;;;;;;;9.40;6.50;;;5.50;1.00;;;;;;5012483;28;20467;-45
2021/04/18 04:46:42;;;;;;;11.63;7.20;;;5.50;1.00;;;;;;5015550;28;20884;-42
2021/04/18 04:49:12;;;;;;;9.83;6.57;;;5.50;1.00;;;;;;5014508;28;20464;-43
2021/04/18 04:51:39;;;;;;;11.70;7.13;;;5.50;1.00;;;;;;5012836;28;20804;-46
2021/04/18 04:54:08;;;;;;;11.97;6.30;;;5.50;1.00;;;;;;5016631;28;20464;-43
2021/04/18 04:56:36;;;;;;;9.13;6.07;;;5.60;1.00;;;;;;5012858;28;20467;-46
2021/04/18 04:59:03;;;;;;;8.60;6.60;;;5.50;1.00;;;;;;5017002;28;20777;-48
2021/04/18 05:01:30;;;;;;;13.90;7.40;;;5.50;1.00;;;;;;5012213;28;20518;-45
2021/04/18 05:03:56;;;;;;;10.13;7.00;;;5.60;1.00;;;;;;4999276;28;20484;-43
2021/04/18 05:06:24;;;;;;;10.60;6.57;;;5.60;1.00;;;;;;5005086;28;20519;-43
2021/04/18 05:08:50;;;;;;;8.67;6.60;;;5.60;1.00;;;;;;5001151;28;20464;-45
2021/04/18 05:11:17;;;;;;;11.07;6.50;;;5.60;1.00;;;;;;5004088;28;20778;-43
2021/04/18 05:13:43;;;;;;;8.90;7.00;;;5.60;1.00;;;;;;5000608;28;20464;-47
2021/04/18 05:16:10;;;;;;;12.67;7.27;;;5.60;1.00;;;;;;5004432;28;20476;-45
2021/04/18 05:18:36;;;;;;;9.20;6.70;;;5.60;1.00;;;;;;5001127;28;20957;-46
2021/04/18 05:21:03;;;;;;;10.30;7.63;;;5.70;1.00;;;;;;5003625;28;20471;-47
2021/04/18 05:23:31;;;;;;;11.33;7.23;;;5.80;1.00;;;;;;5002635;28;20476;-49
2021/04/18 05:25:57;;;;;;;10.07;7.10;;;5.90;1.00;;;;;;5001547;28;20465;-46
2021/04/18 05:28:24;;;;;;;8.73;7.20;;;6.10;1.00;;;;;;5004051;28;20511;-44
2021/04/18 05:30:50;;;;;;;11.60;7.53;;;6.20;1.00;;;;;;5000481;28;20536;-43
2021/04/18 05:33:17;;;;;;;11.20;6.83;;;6.30;1.00;;;;;;5004071;28;20563;-43
2021/04/18 05:35:43;;;;;;;8.33;6.23;;;6.40;1.00;;;;;;5000358;28;20465;-42
2021/04/18 05:38:10;;;;;;;9.83;7.00;;;6.30;1.00;;;;;;5004005;28;20496;-42
2021/04/18 05:40:37;;;;;;;12.13;6.00;;;6.40;1.00;;;;;;4999877;28;20783;-47
2021/04/18 05:43:04;;;;;;;10.83;7.50;;;6.30;1.00;;;;;;5003804;28;20469;-44
2021/04/18 05:45:33;;;;;;;9.73;8.73;;;6.30;1.00;;;;;;5000409;28;20443;-43
2021/04/18 05:48:01;;;;;;;9.60;7.03;;;6.20;1.00;;;;;;5011115;28;20460;-43
2021/04/18 05:50:28;;;;;;;11.50;7.07;;;6.30;1.00;;;;;;5019535;28;20468;-43
2021/04/18 05:52:54;;;;;;;10.10;7.53;;;6.30;1.00;;;;;;5014961;28;20460;-43
2021/04/18 05:55:21;;;;;;;10.30;7.37;;;6.40;1.00;;;;;;5018680;28;20434;-45
2021/04/18 05:57:48;;;;;;;17.93;8.83;;;6.50;1.00;;;;;;5016086;28;20510;-44
2021/04/18 06:00:16;;;;;;;10.53;8.43;;;6.60;1.00;;;;;;5015865;28;20438;-43
2021/04/18 06:02:42;;;;;;;9.07;7.50;;;6.70;1.00;;;;;;5007186;28;20472;-44
2021/04/18 06:05:11;;;;;;;7.67;6.50;;;6.70;1.00;;;;;;4996605;28;20547;-43
2021/04/18 06:07:37;;;;;;;9.30;6.70;;;6.80;1.00;;;;;;5014497;28;20772;-47
2021/04/18 06:10:05;;;;;;;12.00;7.63;;;6.90;1.00;;;;;;5018316;28;20456;-47
2021/04/18 06:12:31;;;;;;;12.03;7.23;;;6.90;1.00;;;;;;5016072;28;20794;-44
2021/04/18 06:14:59;;;;;;;10.03;7.23;;;7.00;1.00;;;;;;4999729;28;20465;-43
2021/04/18 06:17:26;;;;;;;17.20;8.40;;;7.00;1.00;;;;;;4999524;28;20910;-43
2021/04/18 06:19:52;;;;;;;9.97;8.00;;;7.10;1.00;;;;;;5014521;28;20464;-46
2021/04/18 06:22:19;;;;;;;10.00;8.20;;;7.20;1.00;;;;;;5018263;28;20464;-48
2021/04/18 06:24:45;;;;;;;11.47;7.63;;;7.40;1.00;;;;;;5019039;28;20463;-45
2021/04/18 06:27:12;;;;;;;12.23;7.70;;;7.70;1.00;;;;;;5018784;28;20464;-45
2021/04/18 06:29:38;;;;;;;9.20;8.30;;;8.00;1.00;;;;;;5018679;28;20495;-45
2021/04/18 06:32:07;;;;;;;9.03;7.97;;;8.30;1.00;;;;;;5018511;28;20464;-45
2021/04/18 06:34:35;;;;;;;10.63;8.70;;;8.40;1.00;;;;;;5018740;28;20464;-47
2021/04/18 06:37:03;;;;;;;8.10;7.30;;;8.50;1.00;;;;;;5019114;28;20749;-43
2021/04/18 06:39:29;;;;;;;8.97;8.07;;;8.50;1.00;;;;;;5003972;28;20492;-45
2021/04/18 06:42:01;;;;;;;13.30;9.00;;;8.40;99.90;;;;;;4998609;28;20465;-48
2021/04/18 06:44:31;;;;;;;10.07;8.83;;;8.30;1.00;;;;;;4999161;28;20523;-45
2021/04/18 06:47:02;;;;;;;9.40;8.43;;;8.40;1.00;;;;;;4999246;28;20461;-45
2021/04/18 06:49:30;;;;;;;12.40;8.77;;;8.60;1.00;;;;;;4998910;28;20457;-44
2021/04/18 06:51:57;;;;;;;9.40;8.40;;;8.70;1.00;;;;;;4998409;28;20469;-45
2021/04/18 06:54:24;;;;;;;12.77;8.90;;;8.80;99.90;;;;;;4998929;28;20549;-44
2021/04/18 06:56:50;;;;;;;10.20;8.33;;;8.90;99.90;;;;;;5017579;28;20460;-50
2021/04/18 06:59:17;;;;;;;14.00;8.60;;;9.00;99.90;;;;;;5018038;28;20488;-48
2021/04/18 07:01:45;;;;;;;10.93;8.43;;;9.20;99.90;;;;;;5018195;28;20464;-45
2021/04/18 07:04:14;;;;;;;11.10;8.40;;;9.40;99.90;;;;;;4995489;28;20564;-47
2021/04/18 07:06:44;;;;;;;11.17;8.70;;;9.60;99.90;;;;;;4995712;28;20771;-49
2021/04/18 07:09:11;;;;;;;10.10;8.67;;;9.70;99.90;;;;;;5001914;28;20460;-48
2021/04/18 07:11:49;;;;;;;11.10;8.80;;;9.60;99.90;;;;;;4996760;28;20490;-50
2021/04/18 07:14:26;;;;;;;13.53;9.10;;;9.50;99.90;;;;;;4995925;28;20460;-45
2021/04/18 07:16:55;;;;;;;10.83;7.73;;;9.30;99.90;;;;;;4998215;28;20460;-46
2021/04/18 07:19:23;;;;;;;12.50;11.20;;;9.00;99.90;;;;;;4998236;28;20504;-44
2021/04/18 07:21:53;;;;;;;9.53;8.40;;;8.90;99.90;;;;;;4998666;28;20453;-45
2021/04/18 07:24:21;;;;;;;12.40;9.80;;;9.20;99.90;;;;;;4998252;28;20468;-48
2021/04/18 07:26:56;;;;;;;11.50;9.33;;;9.30;99.90;;;;;;4998146;28;20469;-47
2021/04/18 07:29:23;;;;;;;11.90;8.97;;;9.40;99.90;;;;;;4997712;28;20485;-46
2021/04/18 07:31:50;;;;;;;12.00;8.93;;;9.50;99.90;;;;;;4997918;28;20468;-51
2021/04/18 07:34:19;;;;;;;14.20;8.87;;;9.50;99.90;;;;;;4997503;28;20468;-48
2021/04/18 07:36:47;;;;;;;13.93;9.70;;;9.60;99.90;;;;;;4998217;28;20461;-44
2021/04/18 07:39:15;;;;;;;14.33;9.30;;;9.60;99.90;;;;;;4997440;28;20499;-45
2021/04/18 07:41:44;;;;;;;11.67;9.43;;;9.50;99.90;;;;;;4998280;28;20945;-46
2021/04/18 07:44:15;;;;;;;12.07;9.70;;;9.70;99.90;;;;;;4997933;28;20465;-44
2021/04/18 07:46:44;;;;;;;13.70;10.60;;;9.70;99.90;;;;;;4998078;28;20738;-46
2021/04/18 07:49:13;;;;;;;11.20;9.53;;;9.80;99.90;;;;;;4998357;28;20966;-44
2021/04/18 07:51:42;;;;;;;11.23;9.67;;;10.00;99.90;;;;;;4992855;28;20552;-50
2021/04/18 07:54:11;;;;;;;10.77;9.60;;;10.00;99.90;;;;;;4981035;28;20472;-47
2021/04/18 07:56:42;;;;;;;13.90;10.07;;;10.20;99.90;;;;;;4997720;28;20537;-47
2021/04/18 07:59:09;;;;;;;13.37;10.63;;;10.20;99.90;;;;;;4997151;28;20498;-44
2021/04/18 08:01:36;;;;;;;9.80;8.80;;;10.10;99.90;;;;;;4997659;28;20770;-46
2021/04/18 08:04:03;;;;;;;12.00;9.97;;;9.90;99.90;;;;;;4990594;28;20477;-47
2021/04/18 08:06:30;;;;;;;10.80;9.30;;;9.90;99.90;;;;;;4997687;28;20869;-44
2021/04/18 08:08:57;;;;;;;12.80;9.40;;;10.10;99.90;;;;;;4997604;28;20457;-44
2021/04/18 08:11:24;;;;;;;17.17;11.40;;;10.30;99.90;;;;;;5009331;28;20467;-44
2021/04/18 08:13:54;;;;;;;11.47;9.20;;;10.50;99.90;;;;;;4997459;28;20461;-49
2021/04/18 08:16:28;;;;;;;11.77;10.57;;;10.20;99.90;;;;;;5006550;28;20460;-43
2021/04/18 08:19:06;;;;;;;15.60;10.97;;;10.30;99.90;;;;;;5017725;28;20549;-51
2021/04/18 08:21:36;;;;;;;13.33;10.90;;;10.30;99.90;;;;;;5008274;28;20475;-50
2021/04/18 08:24:06;;;;;;;12.53;10.63;;;10.40;99.90;;;;;;4997215;28;20475;-44
2021/04/18 08:26:34;;;;;;;11.50;9.70;;;10.80;99.90;;;;;;4997925;28;20468;-51
2021/04/18 08:29:09;;;;;;;11.10;9.47;;;10.80;99.90;;;;;;5010350;28;20480;-45
2021/04/18 08:31:58;;;;;;;11.87;10.77;;;10.70;99.90;;;;;;5017496;28;20809;-47
2021/04/18 08:34:30;;;;;;;16.17;10.60;;;10.30;99.90;;;;;;5017017;28;20738;-44
2021/04/18 08:36:58;;;;;;;16.37;11.07;;;10.40;99.90;;;;;;5017592;28;20460;-48
2021/04/18 08:39:34;;;;;;;11.13;9.93;;;10.40;99.90;;;;;;5006076;28;20566;-44
2021/04/18 08:42:04;;;;;;;20.03;12.17;;;10.30;99.90;;;;;;5000793;28;20468;-44
2021/04/18 08:44:43;;;;;;;13.43;10.37;;;10.30;99.90;;;;;;5001108;28;20468;-43
2021/04/18 08:47:11;;;;;;;12.83;10.40;;;10.20;99.90;;;;;;4982248;28;20744;-47
2021/04/18 08:49:42;;;;;;;17.47;11.43;;;10.30;99.90;;;;;;4985654;28;20464;-43
2021/04/18 08:52:11;;;;;;;11.50;10.40;;;10.40;99.90;;;;;;4981774;28;20472;-43
2021/04/18 08:54:40;;;;;;;11.63;10.47;;;10.20;99.90;;;;;;4988894;28;20924;-46
2021/04/18 08:57:10;;;;;;;12.87;11.13;;;10.00;99.90;;;;;;5001394;28;20479;-50
2021/04/18 08:59:38;;;;;;;12.57;10.23;;;9.90;99.90;;;;;;5000742;28;20488;-44
2021/04/18 09:02:09;;;;;;;12.70;10.50;;;9.90;99.90;;;;;;5001274;28;20877;-46
2021/04/18 09:04:40;;;;;;;14.30;10.77;;;9.80;99.90;;;;;;4994024;28;20829;-44
2021/04/18 09:07:12;;;;;;;11.03;9.93;;;9.70;99.90;;;;;;5000910;28;20464;-47
2021/04/18 09:09:38;;;;;;;13.07;9.60;;;9.80;99.90;;;;;;5000235;28;20894;-45
2021/04/18 09:12:06;;;;;;;12.83;10.13;;;9.80;99.90;;;;;;5000405;28;20464;-45
2021/04/18 09:14:34;;;;;;;15.90;11.00;;;9.90;99.90;;;;;;5000579;28;20814;-51
2021/04/18 09:17:13;;;;;;;13.83;10.10;;;9.90;99.90;;;;;;5000618;28;20460;-49
2021/04/18 09:19:40;;;;;;;12.60;10.57;;;10.00;99.90;;;;;;4981024;28;20500;-45
2021/04/18 09:29:11;;;;;;;13.40;10.40;;;10.60;99.90;;;;;;4999373;28;20443;-43
2021/04/18 09:31:53;;;;;;;10.20;9.10;;;10.90;99.90;;;;;;5000287;28;20464;-43
2021/04/18 09:34:21;;;;;;;12.57;10.33;;;11.20;99.90;;;;;;5000570;28;20519;-46
2021/04/18 09:36:52;;;;;;;15.00;10.13;;;11.40;99.90;;;;;;4999413;28;20488;-43
2021/04/18 09:39:19;;;;;;;11.20;10.07;;;11.50;99.90;;;;;;4999496;28;20500;-46
2021/04/18 09:41:51;;;;;;;13.00;10.90;;;11.40;99.90;;;;;;4999546;28;20745;-43
2021/04/18 09:44:27;;;;;;;11.57;10.17;;;11.60;99.90;;;;;;4998639;28;20472;-49
2021/04/18 09:46:59;;;;;;;15.17;11.27;;;12.10;99.90;;;;;;4998045;28;20468;-45
2021/04/18 09:49:41;;;;;;;13.70;12.00;;;12.20;99.90;;;;;;4998265;28;20465;-46
2021/04/18 09:52:08;;;;;;;14.00;10.63;;;12.00;99.90;;;;;;4998743;28;20469;-45
2021/04/18 09:54:39;;;;;;;11.30;9.97;;;11.80;99.90;;;;;;5000091;28;20465;-43
2021/04/18 09:57:17;;;;;;;11.80;10.60;;;11.70;99.90;;;;;;4999027;28;20465;-42
2021/04/18 09:59:44;;;;;;;12.60;11.37;;;12.00;99.90;;;;;;4999759;28;20497;-47
2021/04/18 10:02:16;;;;;;;11.50;10.30;;;11.90;99.90;;;;;;4999806;28;20472;-43
2021/04/18 10:04:46;;;;;;;14.30;11.00;;;11.90;99.90;;;;;;4994237;28;20473;-46
2021/04/18 10:07:27;;;;;;;14.90;11.23;;;11.70;99.90;;;;;;4999459;28;20519;-47
2021/04/18 10:09:54;;;;;;;15.63;11.80;;;12.30;99.90;;;;;;4999553;28;20472;-46
2021/04/18 10:12:21;;;;;;;15.30;11.77;;;12.90;99.90;;;;;;4998996;28;20464;-43
2021/04/18 10:15:06;;;;;;;11.70;10.60;;;13.30;99.90;;;;;;4999636;28;20464;-47
2021/04/18 10:17:37;;;;;;;13.20;11.90;;;13.10;99.90;;;;;;4999537;28;20465;-49
2021/04/18 10:20:07;;;;;;;13.70;11.37;;;13.10;99.90;;;;;;4999634;28;20468;-47
2021/04/18 10:22:33;;;;;;;16.33;11.97;;;13.20;99.90;;;;;;4999063;28;20921;-45
2021/04/18 10:25:06;;;;;;;13.33;10.60;;;12.80;99.90;;;;;;4999554;28;20471;-48
2021/04/18 10:28:28;;;;;;;16.93;11.97;;;12.90;99.90;;;;;;4999251;28;20488;-47
2021/04/18 10:30:55;;;;;;;12.00;10.80;;;13.30;99.90;;;;;;4999017;28;20504;-50
2021/04/18 10:33:25;;;;;;;17.13;11.47;;;13.30;99.90;;;;;;4999118;28;20469;-45
2021/04/18 10:35:55;;;;;;;11.77;10.53;;;13.00;99.90;;;;;;4999147;28;20461;-53
2021/04/18 10:38:22;;;;;;;12.90;11.67;;;13.20;99.90;;;;;;4998879;28;20964;-46
2021/04/18 10:40:48;;;;;;;12.73;11.10;;;13.70;99.90;;;;;;4998955;28;20469;-44
2021/04/18 10:43:15;;;;;;;14.27;11.43;;;13.40;99.90;;;;;;4999099;28;20465;-47
2021/04/18 10:45:41;;;;;;;15.63;11.80;;;13.70;99.90;;;;;;4999304;28;20901;-44
2021/04/18 10:48:09;;;;;;;14.20;11.27;;;13.70;99.90;;;;;;4998946;28;20461;-45
2021/04/18 10:50:35;;;;;;;14.20;11.97;;;13.60;99.90;;;;;;4999029;28;20472;-46
2021/04/18 10:53:03;;;;;;;16.50;11.23;;;13.60;99.90;;;;;;4999331;28;20461;-45
2021/04/18 10:55:30;;;;;;;13.27;11.10;;;13.60;99.90;;;;;;4998271;28;20828;-43
2021/04/18 10:57:57;;;;;;;15.57;11.77;;;13.20;99.90;;;;;;4998921;28;20916;-44
2021/04/18 11:00:23;;;;;;;12.03;9.93;;;13.20;99.90;;;;;;4997900;28;20469;-46
2021/04/18 11:02:53;;;;;;;15.13;12.80;;;13.10;99.90;;;;;;4994429;28;20481;-49
2021/04/18 11:05:20;;;;;;;14.90;11.63;;;12.80;99.90;;;;;;4995268;28;20474;-47
2021/04/18 11:07:53;;;;;;;14.90;12.00;;;12.80;99.90;;;;;;4998184;28;20543;-43
2021/04/18 11:10:20;;;;;;;13.23;11.47;;;12.90;99.90;;;;;;4997567;28;20464;-48
2021/04/18 11:12:46;;;;;;;13.53;11.60;;;13.10;99.90;;;;;;4998928;28;20456;-47
2021/04/18 11:15:16;;;;;;;16.37;12.50;;;13.10;99.90;;;;;;4998549;28;20770;-46
2021/04/18 11:17:43;;;;;;;18.00;11.40;;;13.30;99.90;;;;;;4998302;28;20464;-42
2021/04/18 11:20:11;;;;;;;14.23;11.37;;;13.60;99.90;;;;;;4998682;28;20464;-44
2021/04/18 11:22:39;;;;;;;12.53;11.20;;;14.20;99.90;;;;;;4997915;28;20468;-50
2021/04/18 11:25:09;;;;;;;13.90;10.90;;;14.60;99.90;;;;;;4998479;28;20484;-47
2021/04/18 11:27:37;;;;;;;14.73;12.87;;;14.40;99.90;;;;;;4998249;28;20984;-48
2021/04/18 11:30:08;;;;;;;14.57;11.80;;;15.30;99.90;;;;;;4998199;28;20481;-51
2021/04/18 11:32:40;;;;;;;13.20;11.87;;;15.40;99.90;;;;;;4998707;28;20487;-47
2021/04/18 11:35:08;;;;;;;14.73;11.70;;;15.10;99.90;;;;;;4998782;28;20469;-49
2021/04/18 11:37:35;;;;;;;13.93;12.60;;;14.80;99.90;;;;;;4997783;28;20465;-50
2021/04/18 11:40:02;;;;;;;14.00;11.70;;;15.20;99.90;;;;;;5014604;28;20498;-49
2021/04/18 11:42:29;;;;;;;17.23;11.40;;;14.80;99.90;;;;;;5015684;28;20773;-51
2021/04/18 11:44:56;;;;;;;13.13;11.40;;;14.90;99.90;;;;;;5003235;28;20457;-48
2021/04/18 11:47:23;;;;;;;13.30;11.83;;;14.80;99.90;;;;;;4997940;28;20824;-47
2021/04/18 11:49:50;;;;;;;14.90;12.47;;;14.60;99.90;;;;;;4997863;28;20465;-52
2021/04/18 11:52:16;;;;;;;12.97;11.87;;;14.60;99.90;;;;;;4998453;28;20468;-49
2021/04/18 11:54:43;;;;;;;12.33;11.33;;;15.00;99.90;;;;;;4996408;28;20484;-49
2021/04/18 11:57:09;;;;;;;13.57;12.33;;;15.30;99.90;;;;;;5013786;28;20475;-54
2021/04/18 11:59:38;;;;;;;17.40;12.77;;;15.40;99.90;;;;;;4998476;28;20489;-48
2021/04/18 12:02:05;;;;;;;14.80;11.67;;;15.30;99.90;;;;;;4997721;28;20472;-48
2021/04/18 12:04:32;;;;;;;13.93;12.57;;;14.80;99.90;;;;;;4989405;28;20477;-47
2021/04/18 12:06:59;;;;;;;14.00;12.57;;;14.60;99.90;;;;;;4997038;28;20465;-48
2021/04/18 12:09:27;;;;;;;16.37;12.47;;;15.20;99.90;;;;;;4996379;28;20465;-50
2021/04/18 12:11:53;;;;;;;16.00;11.87;;;15.90;99.90;;;;;;5000284;28;20468;-46
2021/04/18 12:14:25;;;;;;;15.03;11.97;;;16.90;99.90;;;;;;5003847;28;20485;-51
2021/04/18 12:16:52;;;;;;;13.17;11.93;;;17.60;99.90;;;;;;4984430;28;20540;-46
2021/04/18 12:19:19;;;;;;;13.57;12.17;;;18.30;99.90;;;;;;4984297;28;20501;-46
2021/04/18 12:21:46;;;;;;;13.60;12.30;;;17.90;99.90;;;;;;4993563;28;20457;-51
2021/04/18 12:24:16;;;;;;;14.00;12.57;;;16.90;99.90;;;;;;5004189;28;20461;-48
2021/04/18 12:26:43;;;;;;;13.83;12.53;;;16.20;99.90;;;;;;5003120;28;20471;-46
2021/04/18 12:29:10;;;;;;;20.10;14.50;;;15.60;99.90;;;;;;4998139;28;20626;-44
2021/04/18 12:31:40;;;;;;;14.00;12.40;;;15.40;99.90;;;;;;5003209;28;20464;-48
2021/04/18 12:34:07;;;;;;;13.03;11.80;;;15.20;99.90;;;;;;5004214;28;20515;-52
2021/04/18 12:36:38;;;;;;;15.17;13.73;;;15.10;99.90;;;;;;5003114;28;20475;-51
2021/04/18 12:39:05;;;;;;;13.63;12.33;;;15.30;99.90;;;;;;5003731;28;20542;-46
2021/04/18 12:41:32;;;;;;;14.50;13.03;;;15.40;99.90;;;;;;5003685;28;20468;-47
2021/04/18 12:43:58;;;;;;;12.60;11.30;;;15.60;99.90;;;;;;5003607;28;20464;-52
2021/04/18 12:46:25;;;;;;;11.87;10.70;;;15.40;99.90;;;;;;5004033;28;20471;-46
2021/04/18 12:48:51;;;;;;;11.13;10.03;;;15.00;99.90;;;;;;5003979;28;20456;-51
2021/04/18 12:51:18;;;;;;;14.03;9.80;;;15.10;99.90;;;;;;5002745;28;20865;-54
2021/04/18 12:53:47;;;;;;;13.13;11.00;;;15.30;99.90;;;;;;5004164;28;20439;-51
2021/04/18 12:56:14;;;;;;;11.67;10.57;;;15.50;99.90;;;;;;5002963;28;20468;-49
2021/04/18 12:58:40;;;;;;;13.50;11.47;;;15.50;99.90;;;;;;5003996;28;20499;-44
2021/04/18 13:01:07;;;;;;;13.93;12.53;;;16.10;99.90;;;;;;5004230;28;20563;-52